^^
Station Historical Data
Daily Summary for January 10, 2018 Units:  English    Metric   Both
« Previous Day
Next Day »
Daily Weekly Monthly Yearly Custom
  High: Low: Average:
Temperature: TemperatureC °F -5.8 °F -4.1 °F
Dew Point: DewpointC °F -6.8 °F -4.9 °F
Humidity: Humidity% 93% 93%
Wind Speed: WindSpeedKMHmph 0.0mph 0mph
Wind Gust: WindSpeedGustKMHmph - -
Wind- - NW
Pressure: PressurehPa in 1024.3 in -
Precipitation: 0.0 in    
Historical Graphs
 
 
Tabular Data for January 10, 2018
Time Temperature Dew Point Pressure Wind Wind Speed Wind Gust Humidity Rainfall Rate (Hourly) solar Conditions
TemperatureC °F DewpointC °F PressurehPa in Calm     Humidity% HourlyPrecipMM in SoftwareType W/m2 Conditions
02:15 -2.1 °F -3.1 °F 1024.9 in Calm   5.6 mph 93% 0.0 in WeatherDisplay:10.37 W/m2 FEW
02:41 -2.1 °F -3.1 °F 1024.9 in Calm     93% 0.0 in WeatherDisplay:10.37 W/m2 FEW
03:07 -2.1 °F -3.1 °F 1024.9 in Calm     93% 0.0 in WeatherDisplay:10.37 W/m2 FEW
03:15 -2.1 °F -3.1 °F 1024.9 in SW 0.3 mph 3.7 mph 93% 0.0 in WeatherDisplay:10.37 W/m2 FEW
03:57 -2.1 °F -3.1 °F 1025.3 in Calm     93% 0.0 in WeatherDisplay:10.37 W/m2 FEW
04:07 -2.2 °F -3.2 °F 1025.3 in NNW 0.8 mph 5.6 mph 93% 0.0 in WeatherDisplay:10.37 W/m2 FEW
04:15 -2.2 °F -3.1 °F 1025.3 in Calm     94% 0.0 in WeatherDisplay:10.37 W/m2 FEW
04:25 -2.2 °F -3.2 °F 1025.3 in Calm     93% 0.0 in WeatherDisplay:10.37 W/m2 FEW
04:36 -2.2 °F -3.2 °F 1025.3 in NNW 1.4 mph 5.6 mph 93% 0.0 in WeatherDisplay:10.37 W/m2 FEW
04:57 -2.2 °F -3.2 °F 1025.3 in Calm     93% 0.0 in WeatherDisplay:10.37 W/m2 FEW
05:07 -2.2 °F -3.2 °F 1025.3 in Calm     93% 0.0 in WeatherDisplay:10.37 W/m2 FEW
05:14 -2.3 °F -3.1 °F 1025.3 in Calm     94% 0.0 in WeatherDisplay:10.37 W/m2 FEW
05:19 -2.3 °F -3.1 °F 1024.9 in Calm     94% 0.0 in WeatherDisplay:10.37 W/m2 FEW
05:47 -2.3 °F -3.2 °F 1025.3 in Calm     94% 0.0 in WeatherDisplay:10.37 W/m2 FEW
05:52 -2.3 °F -3.2 °F 1025.3 in Calm     94% 0.0 in WeatherDisplay:10.37 W/m2 FEW
05:54 -2.3 °F -3.2 °F 1025.3 in Calm     94% 0.0 in WeatherDisplay:10.37 W/m2 FEW
06:01 -2.4 °F -3.4 °F 1024.9 in Calm     93% 0.0 in WeatherDisplay:10.37 W/m2 FEW
06:03 -2.4 °F -3.2 °F 1025.3 in Calm     94% 0.0 in WeatherDisplay:10.37 W/m2 FEW
06:15 -2.4 °F -3.4 °F 1025.3 in Calm     93% 0.0 in WeatherDisplay:10.37 W/m2 FEW
06:20 -2.4 °F -3.4 °F 1025.3 in Calm     93% 0.0 in WeatherDisplay:10.37 W/m2 FEW
06:33 -2.4 °F -3.4 °F 1024.9 in Calm     93% 0.0 in WeatherDisplay:10.37 W/m2 FEW
06:38 -2.5 °F -3.5 °F 1024.9 in Calm     93% 0.0 in WeatherDisplay:10.37 W/m2 FEW
09:05 -3.4 °F -4.2 °F 1024.9 in Calm     94% 0.0 in WeatherDisplay:10.37 W/m2 FEW
09:42 -3.4 °F -4.3 °F 1025.3 in Calm     94% 0.0 in WeatherDisplay:10.37 W/m2 FEW
09:58 -3.4 °F -4.3 °F 1025.3 in Calm     94% 0.0 in WeatherDisplay:10.37 W/m2 FEW
10:13 -3.4 °F -4.3 °F 1025.3 in Calm     94% 0.0 in WeatherDisplay:10.37 W/m2 FEW
10:16 -3.4 °F -4.3 °F 1025.3 in Calm     94% 0.0 in WeatherDisplay:10.37 W/m2 FEW
10:45 -3.7 °F -4.6 °F 1025.3 in Calm     94% 0.0 in WeatherDisplay:10.37 W/m2 FEW
11:24 -3.6 °F -4.4 °F 1025.3 in Calm     94% 0.0 in WeatherDisplay:10.37 W/m2 FEW
12:35 -3.7 °F -4.5 °F 1024.9 in Calm     94% 0.0 in WeatherDisplay:10.37 W/m2 FEW
14:58 -3.3 °F -4.2 °F 1024.6 in Calm     94% 0.0 in WeatherDisplay:10.37 W/m2 FEW
15:27 -3.5 °F -4.3 °F 1024.6 in Calm     94% 0.0 in WeatherDisplay:10.37 W/m2 FEW
16:18 -3.8 °F -4.6 °F 1024.3 in Calm     94% 0.0 in WeatherDisplay:10.37 W/m2 FEW
16:19 -3.8 °F -4.6 °F 1024.3 in Calm     94% 0.0 in WeatherDisplay:10.37 W/m2 FEW
16:21 -3.8 °F -4.7 °F 1024.3 in Calm     94% 0.0 in WeatherDisplay:10.37 W/m2 FEW
16:22 -3.8 °F -4.7 °F 1024.3 in Calm     94% 0.0 in WeatherDisplay:10.37 W/m2 FEW
16:23 -3.8 °F -4.7 °F 1024.3 in Calm     94% 0.0 in WeatherDisplay:10.37 W/m2 FEW
16:26 -3.8 °F -4.7 °F 1024.3 in Calm     94% 0.0 in WeatherDisplay:10.37 W/m2 FEW
16:28 -3.8 °F -4.7 °F 1024.3 in Calm     94% 0.0 in WeatherDisplay:10.37 W/m2 FEW
16:31 -3.8 °F -4.7 °F 1024.3 in NW 0.3 mph 1.9 mph 94% 0.0 in WeatherDisplay:10.37 W/m2 FEW
16:40 -3.9 °F -4.8 °F 1024.3 in Calm     94% 0.0 in WeatherDisplay:10.37 W/m2 FEW
16:45 -3.9 °F -4.8 °F 1024.3 in Calm     94% 0.0 in WeatherDisplay:10.37 W/m2 FEW
16:50 -3.9 °F -4.8 °F 1024.3 in Calm     94% 0.0 in WeatherDisplay:10.37 W/m2 FEW
16:56 -4.0 °F -4.8 °F 1024.3 in Calm     94% 0.0 in WeatherDisplay:10.37 W/m2 FEW
17:01 -4.0 °F -4.8 °F 1024.6 in Calm     94% 0.0 in WeatherDisplay:10.37 W/m2 FEW
17:06 -4.0 °F -4.8 °F 1024.6 in Calm     94% 0.0 in WeatherDisplay:10.37 W/m2 FEW
17:11 -4.0 °F -4.8 °F 1024.6 in Calm     94% 0.0 in WeatherDisplay:10.37 W/m2 FEW
17:16 -4.0 °F -4.8 °F 1024.6 in Calm     94% 0.0 in WeatherDisplay:10.37 W/m2 FEW
17:21 -4.0 °F -4.8 °F 1024.6 in Calm     94% 0.0 in WeatherDisplay:10.37 W/m2 FEW
17:26 -4.1 °F -4.9 °F 1024.6 in Calm     94% 0.0 in WeatherDisplay:10.37 W/m2 FEW
17:32 -4.1 °F -4.9 °F 1024.6 in Calm     94% 0.0 in WeatherDisplay:10.37 W/m2 FEW
17:37 -4.2 °F -5.0 °F 1024.6 in Calm     94% 0.0 in WeatherDisplay:10.37 W/m2 FEW
17:42 -4.2 °F -5.1 °F 1024.6 in Calm     94% 0.0 in WeatherDisplay:10.37 W/m2 FEW
17:53 -4.2 °F -5.1 °F 1024.6 in Calm     94% 0.0 in WeatherDisplay:10.37 W/m2 FEW
17:58 -4.3 °F -5.1 °F 1024.6 in Calm     94% 0.0 in WeatherDisplay:10.37 W/m2 FEW
18:03 -4.3 °F -5.2 °F 1024.6 in Calm     94% 0.0 in WeatherDisplay:10.37 W/m2 FEW
18:08 -4.3 °F -5.2 °F 1024.6 in Calm     94% 0.0 in WeatherDisplay:10.37 W/m2 FEW
18:13 -4.4 °F -5.2 °F 1024.6 in Calm     94% 0.0 in WeatherDisplay:10.37 W/m2 FEW
18:18 -4.4 °F -5.2 °F 1024.3 in Calm     94% 0.0 in WeatherDisplay:10.37 W/m2 FEW
18:23 -4.4 °F -5.3 °F 1024.3 in Calm     94% 0.0 in WeatherDisplay:10.37 W/m2 FEW
18:28 -4.4 °F -5.3 °F 1024.6 in Calm     94% 0.0 in WeatherDisplay:10.37 W/m2 FEW
18:38 -4.5 °F -5.3 °F 1024.3 in Calm     94% 0.0 in WeatherDisplay:10.37 W/m2 FEW
18:43 -4.6 °F -5.4 °F 1024.3 in Calm     94% 0.0 in WeatherDisplay:10.37 W/m2 FEW
18:50 -4.6 °F -5.4 °F 1024.3 in Calm     94% 0.0 in WeatherDisplay:10.37 W/m2 FEW
18:55 -4.6 °F -5.4 °F 1024.3 in Calm     94% 0.0 in WeatherDisplay:10.37 W/m2 FEW
19:05 -4.6 °F -5.4 °F 1024.3 in NNW 1.3 mph 5.6 mph 94% 0.0 in WeatherDisplay:10.37 W/m2 FEW
19:10 -4.7 °F -5.5 °F 1024.6 in Calm     94% 0.0 in WeatherDisplay:10.37 W/m2 FEW
19:24 -4.7 °F -5.5 °F 1024.6 in NNW 0.3 mph 4.8 mph 94% 0.0 in WeatherDisplay:10.37 W/m2 FEW
19:29 -4.7 °F -5.6 °F 1024.3 in Calm     94% 0.0 in WeatherDisplay:10.37 W/m2 FEW
19:34 -4.7 °F -5.6 °F 1024.3 in Calm     94% 0.0 in WeatherDisplay:10.37 W/m2 FEW
19:39 -4.7 °F -5.6 °F 1024.3 in Calm     94% 0.0 in WeatherDisplay:10.37 W/m2 FEW
19:44 -4.7 °F -5.5 °F 1024.3 in Calm     94% 0.0 in WeatherDisplay:10.37 W/m2 FEW
19:49 -4.7 °F -5.5 °F 1024.6 in NNW 0.2 mph 4.8 mph 94% 0.0 in WeatherDisplay:10.37 W/m2 FEW
19:54 -4.7 °F -5.5 °F 1024.3 in Calm     94% 0.0 in WeatherDisplay:10.37 W/m2 FEW
19:59 -4.7 °F -5.5 °F 1024.3 in Calm     94% 0.0 in WeatherDisplay:10.37 W/m2 FEW
20:04 -4.6 °F -5.4 °F 1024.3 in Calm     94% 0.0 in WeatherDisplay:10.37 W/m2 FEW
20:09 -4.6 °F -5.4 °F 1024.3 in Calm     94% 0.0 in WeatherDisplay:10.37 W/m2 FEW
20:14 -4.6 °F -5.4 °F 1024.3 in Calm     94% 0.0 in WeatherDisplay:10.37 W/m2 FEW
20:19 -4.6 °F -5.4 °F 1024.3 in Calm     94% 0.0 in WeatherDisplay:10.37 W/m2 FEW
20:24 -4.6 °F -5.4 °F 1024.3 in Calm     94% 0.0 in WeatherDisplay:10.37 W/m2 FEW
20:29 -4.6 °F -5.4 °F 1024.3 in Calm     94% 0.0 in WeatherDisplay:10.37 W/m2 FEW
20:39 -4.6 °F -5.4 °F 1024.3 in Calm     94% 0.0 in WeatherDisplay:10.37 W/m2 FEW
20:44 -4.6 °F -5.4 °F 1024.3 in Calm     94% 0.0 in WeatherDisplay:10.37 W/m2 FEW
20:49 -4.7 °F -5.5 °F 1024.3 in Calm     94% 0.0 in WeatherDisplay:10.37 W/m2 FEW
20:54 -4.7 °F -5.5 °F 1024.6 in Calm     94% 0.0 in WeatherDisplay:10.37 W/m2 FEW
21:04 -4.8 °F -5.6 °F 1024.3 in Calm     94% 0.0 in WeatherDisplay:10.37 W/m2 FEW
21:09 -4.8 °F -5.7 °F 1024.6 in Calm     94% 0.0 in WeatherDisplay:10.37 W/m2 FEW
21:14 -4.9 °F -5.8 °F 1024.6 in Calm     94% 0.0 in WeatherDisplay:10.37 W/m2 FEW
21:19 -5.1 °F -5.9 °F 1024.6 in Calm     94% 0.0 in WeatherDisplay:10.37 W/m2 FEW
21:30 -5.2 °F -6.0 °F 1024.6 in Calm     94% 0.0 in WeatherDisplay:10.37 W/m2 FEW
21:35 -5.3 °F -6.1 °F 1024.6 in Calm     94% 0.0 in WeatherDisplay:10.37 W/m2 FEW
21:40 -5.3 °F -6.1 °F 1024.6 in Calm     94% 0.0 in WeatherDisplay:10.37 W/m2 FEW
21:48 -5.3 °F -6.2 °F 1024.6 in Calm     94% 0.0 in WeatherDisplay:10.37 W/m2 FEW
22:02 -5.3 °F -6.2 °F 1024.6 in Calm     94% 0.0 in WeatherDisplay:10.37 W/m2 FEW
22:14 -5.4 °F -6.3 °F 1024.6 in Calm     94% 0.0 in WeatherDisplay:10.37 W/m2 FEW
22:19 -5.4 °F -6.3 °F 1024.6 in Calm     94% 0.0 in WeatherDisplay:10.37 W/m2 FEW
22:24 -5.4 °F -6.3 °F 1024.6 in Calm     94% 0.0 in WeatherDisplay:10.37 W/m2 FEW
22:29 -5.5 °F -6.3 °F 1024.6 in Calm     94% 0.0 in WeatherDisplay:10.37 W/m2 FEW
22:34 -5.6 °F -6.4 °F 1024.6 in Calm     94% 0.0 in WeatherDisplay:10.37 W/m2 FEW
22:42 -5.6 °F -6.4 °F 1024.6 in Calm     94% 0.0 in WeatherDisplay:10.37 W/m2 FEW
22:47 -5.6 °F -6.4 °F 1024.6 in Calm     94% 0.0 in WeatherDisplay:10.37 W/m2 FEW
22:52 -5.7 °F -6.5 °F 1024.6 in Calm     94% 0.0 in WeatherDisplay:10.37 W/m2 FEW
22:59 -5.7 °F -6.7 °F 1024.6 in Calm     93% 0.0 in WeatherDisplay:10.37 W/m2 FEW
23:04 -5.7 °F -6.7 °F 1024.6 in Calm     93% 0.0 in WeatherDisplay:10.37 W/m2 FEW
23:10 -5.8 °F -6.8 °F 1024.6 in Calm     93% 0.0 in WeatherDisplay:10.37 W/m2 FEW
23:19 -5.8 °F -6.8 °F 1024.6 in Calm     93% 0.0 in WeatherDisplay:10.37 W/m2 FEW
23:27 -5.8 °F -6.7 °F 1024.6 in Calm     93% 0.0 in WeatherDisplay:10.37 W/m2 FEW
23:32 -5.8 °F -6.7 °F 1024.6 in Calm     93% 0.0 in WeatherDisplay:10.37 W/m2 FEW
23:37 -5.7 °F -6.7 °F 1024.6 in Calm     93% 0.0 in WeatherDisplay:10.37 W/m2 FEW
23:42 -5.7 °F -6.7 °F 1024.6 in Calm     93% 0.0 in WeatherDisplay:10.37 W/m2 FEW
23:49 -5.8 °F -6.7 °F 1024.6 in Calm     93% 0.0 in WeatherDisplay:10.37 W/m2 FEW
23:55 -5.8 °F -6.8 °F 1024.6 in Calm     93% 0.0 in WeatherDisplay:10.37 W/m2 FEW
Tuulensuunkaari, Veikkola, Suomi
Compliments of Weather Underground - 1.75 mb